sensor_id;sensor_type;location;lat;lon;timestamp;P1;durP1;ratioP1;P2;durP2;ratioP2
38715;SDS011;24833;49.324;8.694;2023-07-29T00:02:05;1.13;;;1.10;;
38715;SDS011;24833;49.324;8.694;2023-07-29T00:04:33;1.00;;;0.98;;
38715;SDS011;24833;49.324;8.694;2023-07-29T00:07:00;1.20;;;1.10;;
38715;SDS011;24833;49.324;8.694;2023-07-29T00:09:27;2.05;;;1.13;;
38715;SDS011;24833;49.324;8.694;2023-07-29T00:11:54;1.88;;;1.42;;
38715;SDS011;24833;49.324;8.694;2023-07-29T00:14:21;1.60;;;1.50;;
38715;SDS011;24833;49.324;8.694;2023-07-29T00:16:48;1.45;;;1.35;;
38715;SDS011;24833;49.324;8.694;2023-07-29T00:19:15;1.17;;;1.00;;
38715;SDS011;24833;49.324;8.694;2023-07-29T00:21:42;1.40;;;1.30;;
38715;SDS011;24833;49.324;8.694;2023-07-29T00:24:09;1.27;;;1.17;;
38715;SDS011;24833;49.324;8.694;2023-07-29T00:26:36;1.58;;;1.30;;
38715;SDS011;24833;49.324;8.694;2023-07-29T00:29:03;1.95;;;1.30;;
38715;SDS011;24833;49.324;8.694;2023-07-29T00:31:31;0.90;;;0.90;;
38715;SDS011;24833;49.324;8.694;2023-07-29T00:33:58;2.05;;;1.00;;
38715;SDS011;24833;49.324;8.694;2023-07-29T00:36:25;1.00;;;1.00;;
38715;SDS011;24833;49.324;8.694;2023-07-29T00:38:52;1.92;;;1.35;;
38715;SDS011;24833;49.324;8.694;2023-07-29T00:41:21;1.50;;;1.35;;
38715;SDS011;24833;49.324;8.694;2023-07-29T00:43:49;1.60;;;1.50;;
38715;SDS011;24833;49.324;8.694;2023-07-29T00:46:17;1.48;;;1.38;;
38715;SDS011;24833;49.324;8.694;2023-07-29T00:48:44;2.95;;;1.80;;
38715;SDS011;24833;49.324;8.694;2023-07-29T00:51:12;1.77;;;1.63;;
38715;SDS011;24833;49.324;8.694;2023-07-29T00:53:39;1.88;;;1.40;;
38715;SDS011;24833;49.324;8.694;2023-07-29T00:56:06;1.35;;;1.25;;
38715;SDS011;24833;49.324;8.694;2023-07-29T00:58:33;1.35;;;1.13;;
38715;SDS011;24833;49.324;8.694;2023-07-29T01:01:01;1.30;;;1.20;;
38715;SDS011;24833;49.324;8.694;2023-07-29T01:03:28;2.67;;;1.40;;
38715;SDS011;24833;49.324;8.694;2023-07-29T01:06:01;2.05;;;1.30;;
38715;SDS011;24833;49.324;8.694;2023-07-29T01:09:08;1.55;;;1.20;;
38715;SDS011;24833;49.324;8.694;2023-07-29T01:17:44;1.40;;;1.20;;
38715;SDS011;24833;49.324;8.694;2023-07-29T01:20:16;1.52;;;1.38;;
38715;SDS011;24833;49.324;8.694;2023-07-29T01:22:46;1.52;;;1.42;;
38715;SDS011;24833;49.324;8.694;2023-07-29T01:25:15;4.30;;;1.83;;
38715;SDS011;24833;49.324;8.694;2023-07-29T01:27:43;1.50;;;1.40;;
38715;SDS011;24833;49.324;8.694;2023-07-29T01:30:11;4.03;;;1.33;;
38715;SDS011;24833;49.324;8.694;2023-07-29T01:32:46;1.30;;;1.20;;
38715;SDS011;24833;49.324;8.694;2023-07-29T01:35:39;1.30;;;1.20;;
38715;SDS011;24833;49.324;8.694;2023-07-29T01:38:19;1.17;;;1.05;;
38715;SDS011;24833;49.324;8.694;2023-07-29T01:40:55;0.70;;;0.70;;
38715;SDS011;24833;49.324;8.694;2023-07-29T01:43:24;1.05;;;0.95;;
38715;SDS011;24833;49.324;8.694;2023-07-29T01:45:52;1.45;;;1.27;;
38715;SDS011;24833;49.324;8.694;2023-07-29T01:48:19;1.50;;;1.25;;
38715;SDS011;24833;49.324;8.694;2023-07-29T01:50:48;1.20;;;1.20;;
38715;SDS011;24833;49.324;8.694;2023-07-29T01:53:15;1.80;;;1.40;;
38715;SDS011;24833;49.324;8.694;2023-07-29T01:55:43;1.10;;;1.00;;
38715;SDS011;24833;49.324;8.694;2023-07-29T01:58:11;2.13;;;1.67;;
38715;SDS011;24833;49.324;8.694;2023-07-29T02:00:39;1.58;;;1.48;;
38715;SDS011;24833;49.324;8.694;2023-07-29T02:03:06;2.20;;;1.23;;
38715;SDS011;24833;49.324;8.694;2023-07-29T02:05:33;1.33;;;1.23;;
38715;SDS011;24833;49.324;8.694;2023-07-29T02:08:00;1.52;;;1.42;;
38715;SDS011;24833;49.324;8.694;2023-07-29T02:10:28;1.13;;;0.77;;
38715;SDS011;24833;49.324;8.694;2023-07-29T02:12:55;1.48;;;1.38;;
38715;SDS011;24833;49.324;8.694;2023-07-29T02:15:22;1.45;;;1.35;;
38715;SDS011;24833;49.324;8.694;2023-07-29T02:17:49;1.40;;;1.15;;
38715;SDS011;24833;49.324;8.694;2023-07-29T02:20:18;1.38;;;1.27;;
38715;SDS011;24833;49.324;8.694;2023-07-29T02:22:45;1.60;;;1.00;;
38715;SDS011;24833;49.324;8.694;2023-07-29T02:25:13;3.17;;;1.20;;
38715;SDS011;24833;49.324;8.694;2023-07-29T02:27:41;1.23;;;1.10;;
38715;SDS011;24833;49.324;8.694;2023-07-29T02:30:08;1.33;;;1.00;;
38715;SDS011;24833;49.324;8.694;2023-07-29T02:32:36;1.73;;;1.20;;
38715;SDS011;24833;49.324;8.694;2023-07-29T02:35:03;2.03;;;1.05;;
38715;SDS011;24833;49.324;8.694;2023-07-29T02:37:31;2.03;;;1.10;;
38715;SDS011;24833;49.324;8.694;2023-07-29T02:39:59;1.10;;;1.00;;
38715;SDS011;24833;49.324;8.694;2023-07-29T02:42:27;1.38;;;1.27;;
38715;SDS011;24833;49.324;8.694;2023-07-29T02:44:54;1.50;;;1.10;;
38715;SDS011;24833;49.324;8.694;2023-07-29T02:47:21;1.20;;;1.10;;
38715;SDS011;24833;49.324;8.694;2023-07-29T02:49:48;1.10;;;1.10;;
38715;SDS011;24833;49.324;8.694;2023-07-29T02:52:15;1.10;;;1.00;;
38715;SDS011;24833;49.324;8.694;2023-07-29T02:54:44;1.00;;;1.00;;
38715;SDS011;24833;49.324;8.694;2023-07-29T02:57:13;1.98;;;1.30;;
38715;SDS011;24833;49.324;8.694;2023-07-29T02:59:40;2.80;;;0.88;;
38715;SDS011;24833;49.324;8.694;2023-07-29T03:02:07;1.05;;;0.95;;
38715;SDS011;24833;49.324;8.694;2023-07-29T03:04:34;2.03;;;1.33;;
38715;SDS011;24833;49.324;8.694;2023-07-29T03:07:01;1.35;;;1.10;;
38715;SDS011;24833;49.324;8.694;2023-07-29T03:09:28;1.30;;;1.20;;
38715;SDS011;24833;49.324;8.694;2023-07-29T03:11:55;1.20;;;1.10;;
38715;SDS011;24833;49.324;8.694;2023-07-29T03:14:23;2.50;;;1.10;;
38715;SDS011;24833;49.324;8.694;2023-07-29T03:16:50;1.02;;;0.90;;
38715;SDS011;24833;49.324;8.694;2023-07-29T03:19:17;1.58;;;1.20;;
38715;SDS011;24833;49.324;8.694;2023-07-29T03:21:45;2.25;;;1.50;;
38715;SDS011;24833;49.324;8.694;2023-07-29T03:24:12;1.02;;;1.00;;
38715;SDS011;24833;49.324;8.694;2023-07-29T03:26:39;2.45;;;0.90;;
38715;SDS011;24833;49.324;8.694;2023-07-29T03:29:09;1.63;;;1.27;;
38715;SDS011;24833;49.324;8.694;2023-07-29T03:31:36;4.32;;;1.25;;
38715;SDS011;24833;49.324;8.694;2023-07-29T03:34:03;2.15;;;1.17;;
38715;SDS011;24833;49.324;8.694;2023-07-29T03:36:30;1.63;;;1.17;;
38715;SDS011;24833;49.324;8.694;2023-07-29T03:38:57;0.90;;;0.90;;
38715;SDS011;24833;49.324;8.694;2023-07-29T03:41:24;1.60;;;1.23;;
38715;SDS011;24833;49.324;8.694;2023-07-29T03:43:52;1.20;;;1.10;;
38715;SDS011;24833;49.324;8.694;2023-07-29T03:46:19;1.88;;;1.20;;
38715;SDS011;24833;49.324;8.694;2023-07-29T03:48:49;1.65;;;1.48;;
38715;SDS011;24833;49.324;8.694;2023-07-29T03:51:16;1.50;;;1.40;;
38715;SDS011;24833;49.324;8.694;2023-07-29T03:53:46;2.45;;;1.13;;
38715;SDS011;24833;49.324;8.694;2023-07-29T03:56:13;1.20;;;1.10;;
38715;SDS011;24833;49.324;8.694;2023-07-29T03:58:40;4.35;;;1.60;;
38715;SDS011;24833;49.324;8.694;2023-07-29T04:01:07;4.25;;;1.73;;
38715;SDS011;24833;49.324;8.694;2023-07-29T04:03:34;1.67;;;1.27;;
38715;SDS011;24833;49.324;8.694;2023-07-29T04:06:02;0.90;;;0.90;;
38715;SDS011;24833;49.324;8.694;2023-07-29T04:08:29;1.83;;;1.20;;
38715;SDS011;24833;49.324;8.694;2023-07-29T04:10:56;1.38;;;1.27;;
38715;SDS011;24833;49.324;8.694;2023-07-29T04:13:23;1.27;;;1.17;;
38715;SDS011;24833;49.324;8.694;2023-07-29T04:15:50;1.67;;;1.17;;
38715;SDS011;24833;49.324;8.694;2023-07-29T04:18:18;1.10;;;1.02;;
38715;SDS011;24833;49.324;8.694;2023-07-29T04:20:46;1.33;;;1.20;;
38715;SDS011;24833;49.324;8.694;2023-07-29T04:23:16;1.20;;;1.10;;
38715;SDS011;24833;49.324;8.694;2023-07-29T04:25:46;1.20;;;1.10;;
38715;SDS011;24833;49.324;8.694;2023-07-29T04:28:13;1.23;;;1.13;;
38715;SDS011;24833;49.324;8.694;2023-07-29T04:30:40;1.52;;;1.40;;
38715;SDS011;24833;49.324;8.694;2023-07-29T04:33:07;1.63;;;1.38;;
38715;SDS011;24833;49.324;8.694;2023-07-29T04:35:36;2.80;;;1.10;;
38715;SDS011;24833;49.324;8.694;2023-07-29T04:38:03;1.70;;;1.20;;
38715;SDS011;24833;49.324;8.694;2023-07-29T04:40:32;1.55;;;1.17;;
38715;SDS011;24833;49.324;8.694;2023-07-29T04:43:00;0.95;;;0.95;;
38715;SDS011;24833;49.324;8.694;2023-07-29T04:45:30;1.90;;;1.40;;
38715;SDS011;24833;49.324;8.694;2023-07-29T04:47:59;1.10;;;1.00;;
38715;SDS011;24833;49.324;8.694;2023-07-29T04:50:26;2.47;;;1.17;;
38715;SDS011;24833;49.324;8.694;2023-07-29T04:52:53;2.58;;;1.42;;
38715;SDS011;24833;49.324;8.694;2023-07-29T04:55:20;1.65;;;1.13;;
38715;SDS011;24833;49.324;8.694;2023-07-29T04:57:47;1.60;;;1.27;;
38715;SDS011;24833;49.324;8.694;2023-07-29T05:00:14;1.35;;;1.25;;
38715;SDS011;24833;49.324;8.694;2023-07-29T05:02:42;2.72;;;1.48;;
38715;SDS011;24833;49.324;8.694;2023-07-29T05:05:09;1.20;;;1.10;;
38715;SDS011;24833;49.324;8.694;2023-07-29T05:07:36;1.25;;;1.10;;
38715;SDS011;24833;49.324;8.694;2023-07-29T05:10:04;2.05;;;1.33;;
38715;SDS011;24833;49.324;8.694;2023-07-29T05:12:32;1.20;;;1.10;;
38715;SDS011;24833;49.324;8.694;2023-07-29T05:14:59;1.20;;;1.10;;
38715;SDS011;24833;49.324;8.694;2023-07-29T05:17:26;4.22;;;1.30;;
38715;SDS011;24833;49.324;8.694;2023-07-29T05:19:53;2.67;;;1.27;;
38715;SDS011;24833;49.324;8.694;2023-07-29T05:22:20;0.95;;;0.80;;
38715;SDS011;24833;49.324;8.694;2023-07-29T05:24:47;0.82;;;0.80;;
38715;SDS011;24833;49.324;8.694;2023-07-29T05:27:14;0.80;;;0.80;;
38715;SDS011;24833;49.324;8.694;2023-07-29T05:29:42;0.82;;;0.82;;
38715;SDS011;24833;49.324;8.694;2023-07-29T05:32:09;0.80;;;0.80;;
38715;SDS011;24833;49.324;8.694;2023-07-29T05:34:36;1.25;;;1.15;;
38715;SDS011;24833;49.324;8.694;2023-07-29T05:37:03;1.17;;;1.05;;
38715;SDS011;24833;49.324;8.694;2023-07-29T05:39:31;1.45;;;1.13;;
38715;SDS011;24833;49.324;8.694;2023-07-29T05:41:59;2.88;;;1.10;;
38715;SDS011;24833;49.324;8.694;2023-07-29T05:44:29;1.35;;;1.25;;
38715;SDS011;24833;49.324;8.694;2023-07-29T05:46:59;1.13;;;1.13;;
38715;SDS011;24833;49.324;8.694;2023-07-29T05:49:27;1.58;;;1.42;;
38715;SDS011;24833;49.324;8.694;2023-07-29T05:51:54;1.35;;;1.10;;
38715;SDS011;24833;49.324;8.694;2023-07-29T05:54:21;1.10;;;1.05;;
38715;SDS011;24833;49.324;8.694;2023-07-29T05:56:48;1.30;;;1.20;;
38715;SDS011;24833;49.324;8.694;2023-07-29T05:59:15;1.35;;;1.25;;
38715;SDS011;24833;49.324;8.694;2023-07-29T06:01:43;1.67;;;1.13;;
38715;SDS011;24833;49.324;8.694;2023-07-29T06:04:11;1.92;;;1.00;;
38715;SDS011;24833;49.324;8.694;2023-07-29T06:06:39;1.05;;;1.05;;
38715;SDS011;24833;49.324;8.694;2023-07-29T06:09:06;1.25;;;1.17;;
38715;SDS011;24833;49.324;8.694;2023-07-29T06:11:33;1.10;;;1.10;;
38715;SDS011;24833;49.324;8.694;2023-07-29T06:14:00;1.52;;;1.42;;
38715;SDS011;24833;49.324;8.694;2023-07-29T06:16:27;1.60;;;1.50;;
38715;SDS011;24833;49.324;8.694;2023-07-29T06:18:54;1.67;;;1.58;;
38715;SDS011;24833;49.324;8.694;2023-07-29T06:21:21;2.45;;;2.25;;
38715;SDS011;24833;49.324;8.694;2023-07-29T06:23:49;2.03;;;1.83;;
38715;SDS011;24833;49.324;8.694;2023-07-29T06:26:16;2.17;;;1.98;;
38715;SDS011;24833;49.324;8.694;2023-07-29T06:28:43;4.03;;;1.70;;
38715;SDS011;24833;49.324;8.694;2023-07-29T06:31:10;2.38;;;2.03;;
38715;SDS011;24833;49.324;8.694;2023-07-29T06:33:37;2.63;;;2.13;;
38715;SDS011;24833;49.324;8.694;2023-07-29T06:36:04;3.17;;;1.80;;
38715;SDS011;24833;49.324;8.694;2023-07-29T06:38:31;2.08;;;1.88;;
38715;SDS011;24833;49.324;8.694;2023-07-29T06:40:58;2.78;;;1.77;;
38715;SDS011;24833;49.324;8.694;2023-07-29T06:43:25;2.60;;;1.90;;
38715;SDS011;24833;49.324;8.694;2023-07-29T06:45:52;2.92;;;2.03;;
38715;SDS011;24833;49.324;8.694;2023-07-29T06:48:19;2.05;;;1.83;;
38715;SDS011;24833;49.324;8.694;2023-07-29T06:50:47;2.47;;;2.25;;
38715;SDS011;24833;49.324;8.694;2023-07-29T06:53:16;2.88;;;2.10;;
38715;SDS011;24833;49.324;8.694;2023-07-29T06:55:44;4.38;;;2.17;;
38715;SDS011;24833;49.324;8.694;2023-07-29T06:58:11;2.95;;;1.92;;
38715;SDS011;24833;49.324;8.694;2023-07-29T07:00:38;3.47;;;2.35;;
38715;SDS011;24833;49.324;8.694;2023-07-29T07:03:05;3.47;;;2.42;;
38715;SDS011;24833;49.324;8.694;2023-07-29T07:05:32;4.35;;;2.65;;
38715;SDS011;24833;49.324;8.694;2023-07-29T07:07:59;2.38;;;2.17;;
38715;SDS011;24833;49.324;8.694;2023-07-29T07:10:26;4.07;;;2.50;;
38715;SDS011;24833;49.324;8.694;2023-07-29T07:12:53;3.17;;;2.40;;
38715;SDS011;24833;49.324;8.694;2023-07-29T07:15:20;4.60;;;2.55;;
38715;SDS011;24833;49.324;8.694;2023-07-29T07:17:47;3.72;;;2.85;;
38715;SDS011;24833;49.324;8.694;2023-07-29T07:20:14;4.25;;;2.40;;
38715;SDS011;24833;49.324;8.694;2023-07-29T07:22:42;2.90;;;2.35;;
38715;SDS011;24833;49.324;8.694;2023-07-29T07:25:11;4.13;;;2.78;;
38715;SDS011;24833;49.324;8.694;2023-07-29T07:27:38;4.40;;;2.80;;
38715;SDS011;24833;49.324;8.694;2023-07-29T07:30:05;4.05;;;2.90;;
38715;SDS011;24833;49.324;8.694;2023-07-29T07:32:33;3.88;;;2.58;;
38715;SDS011;24833;49.324;8.694;2023-07-29T07:35:00;3.45;;;2.47;;
38715;SDS011;24833;49.324;8.694;2023-07-29T07:37:27;3.58;;;2.88;;
38715;SDS011;24833;49.324;8.694;2023-07-29T07:39:54;4.10;;;2.28;;
38715;SDS011;24833;49.324;8.694;2023-07-29T07:42:21;3.58;;;2.72;;
38715;SDS011;24833;49.324;8.694;2023-07-29T07:44:48;2.38;;;2.17;;
38715;SDS011;24833;49.324;8.694;2023-07-29T07:47:15;3.35;;;2.47;;
38715;SDS011;24833;49.324;8.694;2023-07-29T07:49:42;3.53;;;2.50;;
38715;SDS011;24833;49.324;8.694;2023-07-29T07:52:09;2.50;;;2.10;;
38715;SDS011;24833;49.324;8.694;2023-07-29T07:54:36;2.40;;;2.13;;
38715;SDS011;24833;49.324;8.694;2023-07-29T07:57:03;2.35;;;1.92;;
38715;SDS011;24833;49.324;8.694;2023-07-29T07:59:31;3.97;;;2.17;;
38715;SDS011;24833;49.324;8.694;2023-07-29T08:01:58;3.72;;;1.95;;
38715;SDS011;24833;49.324;8.694;2023-07-29T08:04:25;2.50;;;2.30;;
38715;SDS011;24833;49.324;8.694;2023-07-29T08:06:52;2.63;;;2.40;;
38715;SDS011;24833;49.324;8.694;2023-07-29T08:09:19;3.05;;;2.00;;
38715;SDS011;24833;49.324;8.694;2023-07-29T08:11:47;3.67;;;2.05;;
38715;SDS011;24833;49.324;8.694;2023-07-29T08:14:14;2.20;;;2.00;;
38715;SDS011;24833;49.324;8.694;2023-07-29T08:16:41;2.72;;;2.30;;
38715;SDS011;24833;49.324;8.694;2023-07-29T08:19:08;2.40;;;2.20;;
38715;SDS011;24833;49.324;8.694;2023-07-29T08:21:36;2.10;;;1.95;;
38715;SDS011;24833;49.324;8.694;2023-07-29T08:24:03;3.08;;;1.92;;
38715;SDS011;24833;49.324;8.694;2023-07-29T08:26:30;2.63;;;2.35;;
38715;SDS011;24833;49.324;8.694;2023-07-29T08:28:57;3.83;;;2.03;;
38715;SDS011;24833;49.324;8.694;2023-07-29T08:31:24;3.10;;;2.13;;
38715;SDS011;24833;49.324;8.694;2023-07-29T08:33:51;2.22;;;1.58;;
38715;SDS011;24833;49.324;8.694;2023-07-29T08:36:18;1.90;;;1.80;;
38715;SDS011;24833;49.324;8.694;2023-07-29T08:38:46;3.70;;;1.92;;
38715;SDS011;24833;49.324;8.694;2023-07-29T08:41:13;2.92;;;2.33;;
38715;SDS011;24833;49.324;8.694;2023-07-29T08:43:44;3.85;;;2.22;;
38715;SDS011;24833;49.324;8.694;2023-07-29T08:46:25;2.55;;;2.20;;
38715;SDS011;24833;49.324;8.694;2023-07-29T08:48:54;2.25;;;2.05;;
38715;SDS011;24833;49.324;8.694;2023-07-29T08:51:22;2.88;;;2.33;;
38715;SDS011;24833;49.324;8.694;2023-07-29T08:53:50;2.35;;;2.08;;
38715;SDS011;24833;49.324;8.694;2023-07-29T08:56:18;2.50;;;2.03;;
38715;SDS011;24833;49.324;8.694;2023-07-29T08:58:45;1.98;;;1.88;;
38715;SDS011;24833;49.324;8.694;2023-07-29T09:01:12;2.13;;;1.98;;
38715;SDS011;24833;49.324;8.694;2023-07-29T09:03:41;2.15;;;1.70;;
38715;SDS011;24833;49.324;8.694;2023-07-29T09:06:08;2.35;;;2.15;;
38715;SDS011;24833;49.324;8.694;2023-07-29T09:08:36;1.98;;;1.73;;
38715;SDS011;24833;49.324;8.694;2023-07-29T09:11:03;2.40;;;2.20;;
38715;SDS011;24833;49.324;8.694;2023-07-29T09:13:30;2.28;;;2.03;;
38715;SDS011;24833;49.324;8.694;2023-07-29T09:15:57;2.03;;;1.85;;
38715;SDS011;24833;49.324;8.694;2023-07-29T09:18:25;2.72;;;2.15;;
38715;SDS011;24833;49.324;8.694;2023-07-29T09:20:53;2.22;;;2.08;;
38715;SDS011;24833;49.324;8.694;2023-07-29T09:23:26;2.25;;;1.98;;
38715;SDS011;24833;49.324;8.694;2023-07-29T09:26:01;2.38;;;2.17;;
38715;SDS011;24833;49.324;8.694;2023-07-29T09:28:32;2.83;;;2.53;;
38715;SDS011;24833;49.324;8.694;2023-07-29T09:31:05;2.78;;;2.53;;
38715;SDS011;24833;49.324;8.694;2023-07-29T09:33:34;2.35;;;2.17;;
38715;SDS011;24833;49.324;8.694;2023-07-29T09:36:08;2.47;;;2.10;;
38715;SDS011;24833;49.324;8.694;2023-07-29T09:38:36;3.72;;;2.25;;
38715;SDS011;24833;49.324;8.694;2023-07-29T09:41:03;2.00;;;1.90;;
38715;SDS011;24833;49.324;8.694;2023-07-29T09:43:31;2.50;;;2.30;;
38715;SDS011;24833;49.324;8.694;2023-07-29T09:46:01;3.17;;;2.23;;
38715;SDS011;24833;49.324;8.694;2023-07-29T09:48:32;2.90;;;2.30;;
38715;SDS011;24833;49.324;8.694;2023-07-29T09:51:11;3.55;;;2.33;;
38715;SDS011;24833;49.324;8.694;2023-07-29T09:53:44;2.80;;;2.10;;
38715;SDS011;24833;49.324;8.694;2023-07-29T09:56:13;2.53;;;2.33;;
38715;SDS011;24833;49.324;8.694;2023-07-29T09:58:45;2.38;;;2.17;;
38715;SDS011;24833;49.324;8.694;2023-07-29T10:01:13;2.40;;;2.20;;
38715;SDS011;24833;49.324;8.694;2023-07-29T10:03:40;3.72;;;2.40;;
38715;SDS011;24833;49.324;8.694;2023-07-29T10:06:08;3.15;;;2.55;;
38715;SDS011;24833;49.324;8.694;2023-07-29T10:08:36;2.63;;;1.95;;
38715;SDS011;24833;49.324;8.694;2023-07-29T10:11:05;3.38;;;2.28;;
38715;SDS011;24833;49.324;8.694;2023-07-29T10:13:33;3.30;;;2.15;;
38715;SDS011;24833;49.324;8.694;2023-07-29T10:16:01;3.20;;;2.15;;
38715;SDS011;24833;49.324;8.694;2023-07-29T10:18:32;4.45;;;2.35;;
38715;SDS011;24833;49.324;8.694;2023-07-29T10:21:06;2.35;;;2.15;;
38715;SDS011;24833;49.324;8.694;2023-07-29T10:23:43;2.17;;;2.03;;
38715;SDS011;24833;49.324;8.694;2023-07-29T10:26:16;2.58;;;2.10;;
38715;SDS011;24833;49.324;8.694;2023-07-29T10:28:47;2.13;;;1.92;;
38715;SDS011;24833;49.324;8.694;2023-07-29T10:31:17;4.47;;;2.28;;
38715;SDS011;24833;49.324;8.694;2023-07-29T10:33:45;6.68;;;2.28;;
38715;SDS011;24833;49.324;8.694;2023-07-29T10:36:13;2.30;;;2.10;;
38715;SDS011;24833;49.324;8.694;2023-07-29T10:38:40;2.22;;;2.00;;
38715;SDS011;24833;49.324;8.694;2023-07-29T10:41:07;2.00;;;1.80;;
38715;SDS011;24833;49.324;8.694;2023-07-29T10:43:37;2.30;;;2.10;;
38715;SDS011;24833;49.324;8.694;2023-07-29T10:51:27;1.77;;;1.67;;
38715;SDS011;24833;49.324;8.694;2023-07-29T10:53:57;6.38;;;1.90;;
38715;SDS011;24833;49.324;8.694;2023-07-29T10:56:42;2.55;;;2.10;;
38715;SDS011;24833;49.324;8.694;2023-07-29T11:01:51;1.98;;;1.88;;
38715;SDS011;24833;49.324;8.694;2023-07-29T11:12:33;2.00;;;1.88;;
38715;SDS011;24833;49.324;8.694;2023-07-29T11:17:37;2.33;;;2.13;;
38715;SDS011;24833;49.324;8.694;2023-07-29T11:20:07;2.25;;;2.05;;
38715;SDS011;24833;49.324;8.694;2023-07-29T11:22:36;2.42;;;1.85;;
38715;SDS011;24833;49.324;8.694;2023-07-29T11:25:04;2.25;;;2.05;;
38715;SDS011;24833;49.324;8.694;2023-07-29T11:27:33;2.70;;;1.93;;
38715;SDS011;24833;49.324;8.694;2023-07-29T11:30:01;2.03;;;1.75;;
38715;SDS011;24833;49.324;8.694;2023-07-29T11:32:35;3.17;;;2.13;;
38715;SDS011;24833;49.324;8.694;2023-07-29T11:35:16;1.73;;;1.60;;
38715;SDS011;24833;49.324;8.694;2023-07-29T11:37:45;1.30;;;1.20;;
38715;SDS011;24833;49.324;8.694;2023-07-29T11:40:15;1.67;;;1.50;;
38715;SDS011;24833;49.324;8.694;2023-07-29T11:42:44;1.65;;;1.55;;
38715;SDS011;24833;49.324;8.694;2023-07-29T11:45:13;1.98;;;1.60;;
38715;SDS011;24833;49.324;8.694;2023-07-29T11:47:44;1.50;;;1.40;;
38715;SDS011;24833;49.324;8.694;2023-07-29T11:50:12;1.90;;;1.70;;
38715;SDS011;24833;49.324;8.694;2023-07-29T11:52:41;1.63;;;1.33;;
38715;SDS011;24833;49.324;8.694;2023-07-29T11:55:13;1.58;;;1.48;;
38715;SDS011;24833;49.324;8.694;2023-07-29T11:57:42;1.63;;;1.52;;
38715;SDS011;24833;49.324;8.694;2023-07-29T12:00:10;5.07;;;1.42;;
38715;SDS011;24833;49.324;8.694;2023-07-29T12:02:39;1.63;;;1.52;;
38715;SDS011;24833;49.324;8.694;2023-07-29T12:05:11;1.40;;;1.30;;
38715;SDS011;24833;49.324;8.694;2023-07-29T12:07:40;1.65;;;1.48;;
38715;SDS011;24833;49.324;8.694;2023-07-29T12:10:09;2.00;;;1.50;;
38715;SDS011;24833;49.324;8.694;2023-07-29T12:12:44;1.85;;;1.70;;
38715;SDS011;24833;49.324;8.694;2023-07-29T12:15:13;2.45;;;1.70;;
38715;SDS011;24833;49.324;8.694;2023-07-29T12:17:48;2.03;;;1.75;;
38715;SDS011;24833;49.324;8.694;2023-07-29T12:20:15;2.35;;;1.30;;
38715;SDS011;24833;49.324;8.694;2023-07-29T12:22:51;1.52;;;1.42;;
38715;SDS011;24833;49.324;8.694;2023-07-29T12:25:22;2.67;;;1.20;;
38715;SDS011;24833;49.324;8.694;2023-07-29T12:27:50;1.60;;;1.50;;
38715;SDS011;24833;49.324;8.694;2023-07-29T12:30:19;1.58;;;1.17;;
38715;SDS011;24833;49.324;8.694;2023-07-29T12:32:52;2.20;;;1.45;;
38715;SDS011;24833;49.324;8.694;2023-07-29T12:35:19;1.80;;;1.40;;
38715;SDS011;24833;49.324;8.694;2023-07-29T12:37:46;1.10;;;1.05;;
38715;SDS011;24833;49.324;8.694;2023-07-29T12:40:23;1.50;;;1.40;;
38715;SDS011;24833;49.324;8.694;2023-07-29T12:43:03;1.50;;;1.30;;
38715;SDS011;24833;49.324;8.694;2023-07-29T12:45:35;1.98;;;1.52;;
38715;SDS011;24833;49.324;8.694;2023-07-29T12:48:06;1.20;;;1.10;;
38715;SDS011;24833;49.324;8.694;2023-07-29T12:50:33;1.48;;;1.38;;
38715;SDS011;24833;49.324;8.694;2023-07-29T12:53:00;1.30;;;1.20;;
38715;SDS011;24833;49.324;8.694;2023-07-29T12:55:27;1.30;;;1.20;;
38715;SDS011;24833;49.324;8.694;2023-07-29T12:57:54;1.60;;;1.50;;
38715;SDS011;24833;49.324;8.694;2023-07-29T13:00:21;1.50;;;1.40;;
38715;SDS011;24833;49.324;8.694;2023-07-29T13:02:48;2.03;;;1.65;;
38715;SDS011;24833;49.324;8.694;2023-07-29T13:05:15;1.35;;;1.25;;
38715;SDS011;24833;49.324;8.694;2023-07-29T13:07:46;2.97;;;1.38;;
38715;SDS011;24833;49.324;8.694;2023-07-29T13:10:13;1.30;;;1.15;;
38715;SDS011;24833;49.324;8.694;2023-07-29T13:12:40;2.70;;;1.35;;
38715;SDS011;24833;49.324;8.694;2023-07-29T13:15:07;0.98;;;0.95;;
38715;SDS011;24833;49.324;8.694;2023-07-29T13:17:35;1.77;;;1.30;;
38715;SDS011;24833;49.324;8.694;2023-07-29T13:20:04;1.63;;;1.40;;
38715;SDS011;24833;49.324;8.694;2023-07-29T13:22:32;2.30;;;1.60;;
38715;SDS011;24833;49.324;8.694;2023-07-29T13:24:59;2.38;;;1.52;;
38715;SDS011;24833;49.324;8.694;2023-07-29T13:27:26;1.63;;;1.52;;
38715;SDS011;24833;49.324;8.694;2023-07-29T13:29:55;2.92;;;1.42;;
38715;SDS011;24833;49.324;8.694;2023-07-29T13:32:22;1.58;;;1.48;;
38715;SDS011;24833;49.324;8.694;2023-07-29T13:34:49;1.42;;;1.20;;
38715;SDS011;24833;49.324;8.694;2023-07-29T13:37:16;1.38;;;1.23;;
38715;SDS011;24833;49.324;8.694;2023-07-29T13:39:43;3.67;;;1.40;;
38715;SDS011;24833;49.324;8.694;2023-07-29T13:42:10;1.70;;;1.60;;
38715;SDS011;24833;49.324;8.694;2023-07-29T13:44:37;1.60;;;1.35;;
38715;SDS011;24833;49.324;8.694;2023-07-29T13:47:04;3.40;;;1.40;;
38715;SDS011;24833;49.324;8.694;2023-07-29T13:49:33;1.25;;;1.15;;
38715;SDS011;24833;49.324;8.694;2023-07-29T13:52:00;1.27;;;1.17;;
38715;SDS011;24833;49.324;8.694;2023-07-29T13:54:27;1.77;;;1.40;;
38715;SDS011;24833;49.324;8.694;2023-07-29T13:56:55;1.63;;;0.95;;
38715;SDS011;24833;49.324;8.694;2023-07-29T13:59:22;1.80;;;1.35;;
38715;SDS011;24833;49.324;8.694;2023-07-29T14:01:49;1.73;;;1.58;;
38715;SDS011;24833;49.324;8.694;2023-07-29T14:04:16;1.00;;;0.98;;
38715;SDS011;24833;49.324;8.694;2023-07-29T14:06:43;2.13;;;1.50;;
38715;SDS011;24833;49.324;8.694;2023-07-29T14:09:16;1.63;;;1.20;;
38715;SDS011;24833;49.324;8.694;2023-07-29T14:11:43;2.38;;;1.30;;
38715;SDS011;24833;49.324;8.694;2023-07-29T14:14:10;1.70;;;1.60;;
38715;SDS011;24833;49.324;8.694;2023-07-29T14:16:37;1.40;;;1.30;;
38715;SDS011;24833;49.324;8.694;2023-07-29T14:19:05;1.40;;;1.30;;
38715;SDS011;24833;49.324;8.694;2023-07-29T14:21:32;1.65;;;1.08;;
38715;SDS011;24833;49.324;8.694;2023-07-29T14:24:00;1.00;;;1.00;;
38715;SDS011;24833;49.324;8.694;2023-07-29T14:26:27;1.50;;;1.40;;
38715;SDS011;24833;49.324;8.694;2023-07-29T14:28:54;1.02;;;0.95;;
38715;SDS011;24833;49.324;8.694;2023-07-29T14:31:21;1.30;;;1.20;;
38715;SDS011;24833;49.324;8.694;2023-07-29T14:33:48;1.17;;;1.08;;
38715;SDS011;24833;49.324;8.694;2023-07-29T14:36:16;1.08;;;1.02;;
38715;SDS011;24833;49.324;8.694;2023-07-29T14:38:43;1.25;;;1.08;;
38715;SDS011;24833;49.324;8.694;2023-07-29T14:41:10;3.95;;;1.40;;
38715;SDS011;24833;49.324;8.694;2023-07-29T14:43:37;1.80;;;1.13;;
38715;SDS011;24833;49.324;8.694;2023-07-29T14:46:04;1.25;;;1.15;;
38715;SDS011;24833;49.324;8.694;2023-07-29T14:48:31;1.55;;;1.17;;
38715;SDS011;24833;49.324;8.694;2023-07-29T14:50:58;2.38;;;1.40;;
38715;SDS011;24833;49.324;8.694;2023-07-29T14:53:25;1.13;;;1.00;;
38715;SDS011;24833;49.324;8.694;2023-07-29T14:55:52;2.10;;;1.35;;
38715;SDS011;24833;49.324;8.694;2023-07-29T14:58:20;1.30;;;1.20;;
38715;SDS011;24833;49.324;8.694;2023-07-29T15:00:47;1.73;;;1.05;;
38715;SDS011;24833;49.324;8.694;2023-07-29T15:03:15;1.30;;;1.20;;
38715;SDS011;24833;49.324;8.694;2023-07-29T15:05:42;1.75;;;1.02;;
38715;SDS011;24833;49.324;8.694;2023-07-29T15:08:09;0.85;;;0.85;;
38715;SDS011;24833;49.324;8.694;2023-07-29T15:10:36;1.10;;;1.05;;
38715;SDS011;24833;49.324;8.694;2023-07-29T15:13:03;1.02;;;0.90;;
38715;SDS011;24833;49.324;8.694;2023-07-29T15:15:30;2.25;;;1.40;;
38715;SDS011;24833;49.324;8.694;2023-07-29T15:17:57;1.30;;;1.20;;
38715;SDS011;24833;49.324;8.694;2023-07-29T15:20:25;1.95;;;1.30;;